CCAYT KSFB-KJWN
Flight info
| Callsign | CCAYT |
|---|---|
| Flight time | N/A |
| Altitude | 40000 |
| Route | N0431F400 DCT WORMS DCT JEEMY DCT ACCHE DCT PAINN DCT SHRKS Q89 HESPI DCT |
| Aircraft | C25C/M-SDE2E3FGHRWXY/LB1 |
Departure
| Time | 2026-05-01 15:00 |
|---|---|
| Airport | Orlando Sanford International Airport (KSFB) |
Arrival
| Time | N/A |
|---|---|
| Airport | John C Tune Airport (KJWN) |
| Time | Latitude | Longitude | Altitude | Speed | Heading |
|---|---|---|---|---|---|
| 2026-05-01 14:54 | 28.78409 | -81.24102 | 52 ft | 0 kts | 251° |
| 2026-05-01 14:55 | 28.78414 | -81.24084 | 53 ft | 3 kts | 251° |
| 2026-05-01 14:56 | 28.78419 | -81.24066 | 53 ft | 2 kts | 251° |
| 2026-05-01 14:56 | 28.78425 | -81.24047 | 51 ft | 1 kts | 251° |
| 2026-05-01 14:58 | 28.78416 | -81.24052 | 53 ft | 9 kts | 188° |
| 2026-05-01 14:58 | 28.78336 | -81.24036 | 54 ft | 11 kts | 184° |
| 2026-05-01 14:58 | 28.78256 | -81.24038 | 54 ft | 11 kts | 176° |
| 2026-05-01 14:58 | 28.78176 | -81.24005 | 54 ft | 15 kts | 143° |
| 2026-05-01 14:59 | 28.78108 | -81.23898 | 54 ft | 19 kts | 120° |
| 2026-05-01 14:59 | 28.78067 | -81.23758 | 54 ft | 19 kts | 90° |
| 2026-05-01 14:59 | 28.78077 | -81.23631 | 52 ft | 6 kts | 25° |
| 2026-05-01 14:59 | 28.78145 | -81.23634 | 51 ft | 12 kts | 356° |
| 2026-05-01 15:00 | 28.78175 | -81.23888 | 54 ft | 72 kts | 269° |
| 2026-05-01 15:00 | 28.78173 | -81.24815 | 259 ft | 142 kts | 269° |
| 2026-05-01 15:00 | 28.78145 | -81.25998 | 1080 ft | 158 kts | 263° |
| 2026-05-01 15:01 | 28.78225 | -81.27310 | 1947 ft | 173 kts | 285° |
| 2026-05-01 15:01 | 28.78653 | -81.28694 | 2787 ft | 201 kts | 297° |
| 2026-05-01 15:01 | 28.79799 | -81.29717 | 3732 ft | 225 kts | 343° |
| 2026-05-01 15:01 | 28.81440 | -81.30016 | 4603 ft | 251 kts | 350° |
| 2026-05-01 15:02 | 28.83210 | -81.30464 | 5429 ft | 272 kts | 342° |
| 2026-05-01 15:02 | 28.84398 | -81.30939 | 6219 ft | 272 kts | 336° |
| 2026-05-01 15:02 | 28.86786 | -81.32016 | 7713 ft | 278 kts | 335° |
| 2026-05-01 15:02 | 28.88604 | -81.32775 | 8821 ft | 282 kts | 336° |
| 2026-05-01 15:03 | 28.90446 | -81.33527 | 9883 ft | 287 kts | 335° |
| 2026-05-01 15:03 | 28.92409 | -81.34343 | 10336 ft | 312 kts | 335° |
| 2026-05-01 15:03 | 28.94537 | -81.35231 | 10805 ft | 330 kts | 335° |
| 2026-05-01 15:03 | 28.96667 | -81.36105 | 11778 ft | 327 kts | 335° |
| 2026-05-01 15:04 | 28.98814 | -81.36995 | 12671 ft | 328 kts | 335° |
| 2026-05-01 15:04 | 29.00941 | -81.37881 | 13531 ft | 328 kts | 335° |
| 2026-05-01 15:04 | 29.03008 | -81.39002 | 14286 ft | 327 kts | 328° |
| 2026-05-01 15:04 | 29.05048 | -81.40190 | 14996 ft | 330 kts | 329° |
| 2026-05-01 15:05 | 29.07097 | -81.41358 | 15686 ft | 333 kts | 329° |
| 2026-05-01 15:05 | 29.09184 | -81.42498 | 16335 ft | 338 kts | 333° |
| 2026-05-01 15:05 | 29.11534 | -81.43066 | 16982 ft | 350 kts | 348° |
| 2026-05-01 15:05 | 29.13956 | -81.43329 | 17590 ft | 354 kts | 348° |
| 2026-05-01 15:06 | 29.16452 | -81.43542 | 18215 ft | 358 kts | 349° |
| 2026-05-01 15:06 | 29.18929 | -81.43756 | 18720 ft | 361 kts | 348° |
| 2026-05-01 15:06 | 29.21444 | -81.43999 | 19188 ft | 366 kts | 348° |
| 2026-05-01 15:06 | 29.24341 | -81.44288 | 19718 ft | 371 kts | 348° |
| 2026-05-01 15:07 | 29.26904 | -81.44527 | 20178 ft | 375 kts | 348° |
| 2026-05-01 15:07 | 29.29530 | -81.44774 | 20649 ft | 379 kts | 348° |
| 2026-05-01 15:07 | 29.32184 | -81.45027 | 21100 ft | 383 kts | 348° |
| 2026-05-01 15:07 | 29.34841 | -81.45281 | 21542 ft | 387 kts | 348° |
| 2026-05-01 15:08 | 29.37540 | -81.45540 | 21978 ft | 391 kts | 348° |
| 2026-05-01 15:08 | 29.40242 | -81.45795 | 22389 ft | 395 kts | 348° |
| 2026-05-01 15:08 | 29.43009 | -81.46061 | 22798 ft | 398 kts | 348° |
| 2026-05-01 15:08 | 29.45757 | -81.46321 | 23186 ft | 401 kts | 348° |
| 2026-05-01 15:09 | 29.48570 | -81.46592 | 23555 ft | 405 kts | 348° |
| 2026-05-01 15:09 | 29.51370 | -81.46857 | 23856 ft | 408 kts | 348° |
| 2026-05-01 15:09 | 29.54236 | -81.47132 | 24177 ft | 410 kts | 348° |
| 2026-05-01 15:09 | 29.57071 | -81.47403 | 24488 ft | 412 kts | 348° |
| 2026-05-01 15:10 | 29.59950 | -81.47675 | 24800 ft | 415 kts | 348° |
| 2026-05-01 15:10 | 29.65732 | -81.48190 | 25405 ft | 419 kts | 348° |
| 2026-05-01 15:10 | 29.68629 | -81.48451 | 25693 ft | 421 kts | 348° |
| 2026-05-01 15:11 | 29.71571 | -81.48723 | 25977 ft | 423 kts | 348° |
| 2026-05-01 15:11 | 29.77451 | -81.49256 | 26525 ft | 428 kts | 348° |
| 2026-05-01 15:11 | 29.80446 | -81.49525 | 26789 ft | 430 kts | 348° |
| 2026-05-01 15:12 | 29.83414 | -81.49799 | 27047 ft | 432 kts | 348° |
| 2026-05-01 15:12 | 29.89396 | -81.50466 | 27515 ft | 428 kts | 340° |
| 2026-05-01 15:12 | 29.92244 | -81.51478 | 27747 ft | 426 kts | 336° |
| 2026-05-01 15:13 | 30.00726 | -81.54481 | 28693 ft | 424 kts | 335° |
| 2026-05-01 15:14 | 30.05418 | -81.56165 | 29242 ft | 424 kts | 336° |
| 2026-05-01 15:14 | 30.09160 | -81.57499 | 29710 ft | 423 kts | 336° |
| 2026-05-01 15:14 | 30.14756 | -81.59505 | 30429 ft | 420 kts | 335° |
| 2026-05-01 15:15 | 30.19399 | -81.61169 | 31077 ft | 416 kts | 335° |
| 2026-05-01 15:15 | 30.25791 | -81.63467 | 31956 ft | 411 kts | 335° |
| 2026-05-01 15:16 | 30.30345 | -81.65103 | 32562 ft | 408 kts | 335° |
| 2026-05-01 15:16 | 30.35724 | -81.67039 | 33298 ft | 404 kts | 335° |
| 2026-05-01 15:17 | 30.41091 | -81.68974 | 34071 ft | 401 kts | 334° |
| 2026-05-01 15:18 | 30.48986 | -81.71820 | 35212 ft | 392 kts | 334° |
| 2026-05-01 15:18 | 30.51588 | -81.72761 | 35582 ft | 389 kts | 334° |
| 2026-05-01 15:19 | 30.59218 | -81.75591 | 36652 ft | 377 kts | 329° |
| 2026-05-01 15:19 | 30.63807 | -81.78268 | 37295 ft | 363 kts | 320° |
| 2026-05-01 15:19 | 30.65867 | -81.79922 | 37632 ft | 356 kts | 315° |
| 2026-05-01 15:20 | 30.69711 | -81.83476 | 38286 ft | 352 kts | 314° |
| 2026-05-01 15:20 | 30.71635 | -81.85240 | 38607 ft | 350 kts | 314° |
| 2026-05-01 15:20 | 30.73518 | -81.86980 | 38841 ft | 349 kts | 314° |
| 2026-05-01 15:21 | 30.75428 | -81.88751 | 39037 ft | 349 kts | 314° |
| 2026-05-01 15:21 | 30.77334 | -81.90517 | 39240 ft | 349 kts | 314° |
| 2026-05-01 15:21 | 30.79231 | -81.92273 | 39453 ft | 350 kts | 314° |
| 2026-05-01 15:21 | 30.81140 | -81.94038 | 39658 ft | 350 kts | 314° |
| 2026-05-01 15:22 | 30.84937 | -81.97562 | 39933 ft | 355 kts | 314° |
| 2026-05-01 15:22 | 30.88874 | -82.01215 | 39980 ft | 364 kts | 314° |
| 2026-05-01 15:23 | 30.92847 | -82.04902 | 40004 ft | 368 kts | 314° |
| 2026-05-01 15:23 | 30.96849 | -82.08624 | 39999 ft | 368 kts | 314° |
| 2026-05-01 15:24 | 31.00850 | -82.12350 | 40005 ft | 367 kts | 314° |
| 2026-05-01 15:24 | 31.04838 | -82.16065 | 40010 ft | 367 kts | 314° |
| 2026-05-01 15:25 | 31.08820 | -82.19781 | 40017 ft | 366 kts | 314° |
| 2026-05-01 15:25 | 31.12798 | -82.23498 | 40021 ft | 366 kts | 314° |
| 2026-05-01 15:26 | 31.16764 | -82.27206 | 40024 ft | 366 kts | 314° |
| 2026-05-01 15:26 | 31.20733 | -82.30920 | 40025 ft | 365 kts | 314° |
| 2026-05-01 15:27 | 31.24697 | -82.34636 | 40026 ft | 365 kts | 314° |
| 2026-05-01 15:28 | 31.30624 | -82.40199 | 40027 ft | 364 kts | 313° |
| 2026-05-01 15:28 | 31.34576 | -82.43912 | 40025 ft | 364 kts | 313° |
| 2026-05-01 15:29 | 31.40506 | -82.49493 | 40015 ft | 364 kts | 313° |
| 2026-05-01 15:30 | 31.48385 | -82.56922 | 40018 ft | 364 kts | 313° |
| 2026-05-01 15:31 | 31.60234 | -82.68126 | 40007 ft | 364 kts | 313° |
| 2026-05-01 15:32 | 31.68103 | -82.75588 | 40007 ft | 364 kts | 312° |
| 2026-05-01 15:34 | 31.79970 | -82.86759 | 40009 ft | 369 kts | 316° |